createdAt,value
2023-04-17T00:01:24.588Z,6.68
2023-04-17T00:03:52.802Z,6.18
2023-04-17T00:06:21.723Z,5.95
2023-04-17T00:08:48.345Z,7.13
2023-04-17T00:11:17.305Z,7.32
2023-04-17T00:13:45.449Z,6.65
2023-04-17T00:16:13.622Z,7.05
2023-04-17T00:18:40.707Z,6.60
2023-04-17T00:21:07.420Z,6.82
2023-04-17T00:23:34.089Z,7.72
2023-04-17T00:26:00.823Z,7.65
2023-04-17T00:28:27.470Z,7.43
2023-04-17T00:30:54.147Z,7.10
2023-04-17T00:33:20.870Z,7.18
2023-04-17T00:35:47.865Z,6.47
2023-04-17T00:38:14.513Z,7.03
2023-04-17T00:40:42.056Z,6.82
2023-04-17T00:43:08.707Z,7.03
2023-04-17T00:45:35.794Z,7.18
2023-04-17T00:48:04.934Z,6.82
2023-04-17T00:50:31.906Z,8.02
2023-04-17T00:52:59.534Z,7.50
2023-04-17T00:55:27.514Z,8.80
2023-04-17T00:57:55.218Z,8.55
2023-04-17T01:00:22.016Z,8.70
2023-04-17T01:02:49.217Z,7.20
2023-04-17T01:05:16.082Z,9.30
2023-04-17T01:07:42.774Z,9.32
2023-04-17T01:10:10.038Z,10.52
2023-04-17T01:12:36.795Z,10.60
2023-04-17T01:15:04.557Z,10.38
2023-04-17T01:17:31.292Z,11.27
2023-04-17T01:19:58.286Z,11.82
2023-04-17T01:22:24.979Z,10.18
2023-04-17T01:24:51.651Z,10.95
2023-04-17T01:27:18.374Z,11.25
2023-04-17T01:29:45.419Z,10.48
2023-04-17T01:32:12.182Z,9.82
2023-04-17T01:34:38.818Z,11.30
2023-04-17T01:37:05.466Z,10.45
2023-04-17T01:39:32.212Z,10.30
2023-04-17T01:41:58.963Z,10.77
2023-04-17T01:44:25.823Z,10.43
2023-04-17T01:46:52.497Z,10.60
2023-04-17T01:49:19.555Z,9.95
2023-04-17T01:51:46.223Z,10.00
2023-04-17T01:54:15.296Z,10.18
2023-04-17T01:56:42.416Z,10.15
2023-04-17T01:59:09.996Z,8.98
2023-04-17T02:01:37.411Z,8.15
2023-04-17T02:04:04.435Z,8.85
2023-04-17T02:06:32.019Z,8.90
2023-04-17T02:08:59.460Z,8.30
2023-04-17T02:11:26.412Z,8.98
2023-04-17T02:13:53.471Z,8.65
2023-04-17T02:16:21.805Z,7.93
2023-04-17T02:18:49.498Z,8.10
2023-04-17T02:21:16.482Z,8.27
2023-04-17T02:23:43.641Z,8.68
2023-04-17T02:26:10.430Z,8.10
2023-04-17T02:28:37.124Z,8.65
2023-04-17T02:31:08.296Z,8.93
2023-04-17T02:33:36.712Z,8.10
2023-04-17T02:36:04.759Z,8.57
2023-04-17T02:38:31.521Z,8.18
2023-04-17T02:40:59.281Z,7.28
2023-04-17T02:43:25.943Z,8.80
2023-04-17T02:45:52.589Z,8.15
2023-04-17T02:48:19.262Z,8.05
2023-04-17T02:50:45.974Z,8.35
2023-04-17T02:53:12.715Z,8.40
2023-04-17T02:55:39.361Z,9.77
2023-04-17T02:58:06.131Z,10.23
2023-04-17T03:00:32.852Z,9.32
2023-04-17T03:02:59.795Z,10.38
2023-04-17T03:05:30.198Z,9.77
2023-04-17T03:08:00.326Z,9.40
2023-04-17T03:10:27.174Z,10.27
2023-04-17T03:12:53.923Z,9.68
2023-04-17T03:15:20.710Z,10.73
2023-04-17T03:17:47.530Z,10.05
2023-04-17T03:20:16.150Z,10.57
2023-04-17T03:22:42.940Z,10.65
2023-04-17T03:25:10.345Z,9.90
2023-04-17T03:27:38.564Z,11.45
2023-04-17T03:30:07.219Z,10.75
2023-04-17T03:32:33.929Z,9.80
2023-04-17T03:35:00.728Z,10.30
2023-04-17T03:37:27.449Z,11.25
2023-04-17T03:39:55.629Z,9.02
2023-04-17T03:42:22.304Z,9.60
2023-04-17T03:44:49.000Z,9.18
2023-04-17T03:47:15.681Z,9.88
2023-04-17T03:49:42.359Z,10.82
2023-04-17T03:52:09.074Z,9.65
2023-04-17T03:54:35.952Z,9.73
2023-04-17T03:57:03.403Z,8.65
2023-04-17T03:59:33.372Z,9.40
2023-04-17T04:02:00.642Z,8.93
2023-04-17T04:04:29.593Z,10.30
2023-04-17T04:06:58.008Z,10.15
2023-04-17T04:09:25.784Z,8.85
2023-04-17T04:11:52.544Z,9.25
2023-04-17T04:14:19.585Z,9.57
2023-04-17T04:16:46.209Z,9.30
2023-04-17T04:19:13.079Z,9.02
2023-04-17T04:21:39.935Z,8.35
2023-04-17T04:24:10.119Z,8.13
2023-04-17T04:26:37.833Z,9.18
2023-04-17T04:29:04.719Z,8.82
2023-04-17T04:31:31.952Z,7.75
2023-04-17T04:33:59.420Z,7.90
2023-04-17T04:36:29.739Z,8.73
2023-04-17T04:38:59.758Z,8.30
2023-04-17T04:41:26.713Z,8.77
2023-04-17T04:43:56.416Z,8.43
2023-04-17T04:46:23.107Z,9.25
2023-04-17T04:48:49.862Z,9.77
2023-04-17T04:51:21.205Z,9.50
2023-04-17T04:53:47.940Z,8.55
2023-04-17T04:56:14.640Z,9.15
2023-04-17T04:58:41.275Z,9.27
2023-04-17T05:01:10.818Z,9.27
2023-04-17T05:03:38.423Z,10.38
2023-04-17T05:06:05.882Z,10.23
2023-04-17T05:08:33.334Z,10.60
2023-04-17T05:10:59.979Z,10.98
2023-04-17T05:13:26.746Z,9.85
2023-04-17T05:15:53.785Z,11.18
2023-04-17T05:18:22.050Z,10.70
2023-04-17T05:20:48.772Z,10.07
2023-04-17T05:23:15.603Z,9.93
2023-04-17T05:25:42.797Z,10.27
2023-04-17T05:28:09.546Z,10.10
2023-04-17T05:30:36.353Z,9.07
2023-04-17T05:33:03.080Z,10.32
2023-04-17T05:35:29.869Z,10.35
2023-04-17T05:37:56.829Z,9.55
2023-04-17T05:40:25.089Z,9.40
2023-04-17T05:42:51.762Z,9.80
2023-04-17T05:45:18.594Z,9.90
2023-04-17T05:47:45.490Z,10.32
2023-04-17T05:50:12.384Z,10.52
2023-04-17T05:52:39.933Z,10.20
2023-04-17T05:55:07.436Z,10.73
2023-04-17T05:57:35.901Z,10.30
2023-04-17T06:00:08.489Z,11.02
2023-04-17T06:02:37.695Z,11.70
2023-04-17T06:05:13.750Z,11.68
2023-04-17T06:07:40.522Z,12.27
2023-04-17T06:10:08.942Z,11.52
2023-04-17T06:12:36.451Z,10.93
2023-04-17T06:15:09.040Z,11.35
2023-04-17T06:17:39.441Z,10.90
2023-04-17T06:20:10.172Z,11.07
2023-04-17T06:22:42.127Z,9.90
2023-04-17T06:25:09.012Z,10.00
2023-04-17T06:27:37.085Z,9.93
2023-04-17T06:30:04.650Z,10.82
2023-04-17T06:32:31.403Z,10.75
2023-04-17T06:35:00.958Z,9.10
2023-04-17T06:37:27.923Z,9.40
2023-04-17T06:39:55.088Z,8.52
2023-04-17T06:42:21.716Z,8.63
2023-04-17T06:44:48.386Z,9.40
2023-04-17T06:47:15.055Z,8.68
2023-04-17T06:49:43.534Z,8.35
2023-04-17T06:52:12.276Z,8.30
2023-04-17T06:54:40.513Z,7.30
2023-04-17T06:57:10.570Z,7.43
2023-04-17T06:59:37.240Z,7.87
2023-04-17T07:02:07.015Z,6.72
2023-04-17T07:04:33.773Z,8.75
2023-04-17T07:07:00.475Z,8.20
2023-04-17T07:09:27.297Z,7.80
2023-04-17T07:11:54.053Z,7.70
2023-04-17T07:14:20.823Z,7.28
2023-04-17T07:16:48.762Z,7.63
2023-04-17T07:19:15.555Z,7.57
2023-04-17T07:21:42.186Z,8.30
2023-04-17T07:24:08.932Z,6.03
2023-04-17T07:26:38.555Z,6.15
2023-04-17T07:29:05.398Z,6.80
2023-04-17T07:31:35.009Z,7.03
2023-04-17T07:34:02.981Z,7.57
2023-04-17T07:36:29.956Z,6.78
2023-04-17T07:38:56.762Z,6.95
2023-04-17T07:41:23.393Z,6.25
2023-04-17T07:43:50.759Z,6.60
2023-04-17T07:46:17.405Z,7.47
2023-04-17T07:48:45.762Z,7.00
2023-04-17T07:51:12.433Z,6.93
2023-04-17T07:53:39.099Z,7.18
2023-04-17T07:56:06.498Z,6.35
2023-04-17T07:58:37.583Z,6.68
2023-04-17T08:01:07.780Z,5.32
2023-04-17T08:03:34.686Z,5.95
2023-04-17T08:06:01.681Z,5.15
2023-04-17T08:08:28.354Z,6.60
2023-04-17T08:10:55.031Z,6.13
2023-04-17T08:13:21.703Z,5.60
2023-04-17T08:15:48.366Z,6.32
2023-04-17T08:18:15.089Z,5.75
2023-04-17T08:20:43.870Z,5.95
2023-04-17T08:23:10.652Z,6.47
2023-04-17T08:25:37.321Z,5.90
2023-04-17T08:28:06.709Z,6.60
2023-04-17T08:30:35.741Z,6.45
2023-04-17T08:33:02.524Z,7.20
2023-04-17T08:35:29.281Z,6.03
2023-04-17T08:37:58.707Z,5.57
2023-04-17T08:40:26.789Z,5.93
2023-04-17T08:42:54.879Z,5.60
2023-04-17T08:45:26.456Z,5.28
2023-04-17T08:47:53.214Z,5.65
2023-04-17T08:50:21.905Z,6.50
2023-04-17T08:52:53.337Z,5.55
2023-04-17T08:55:25.418Z,6.75
2023-04-17T08:57:59.328Z,5.60
2023-04-17T09:00:31.957Z,6.28
2023-04-17T09:03:00.196Z,6.47
2023-04-17T09:05:33.457Z,7.10
2023-04-17T09:08:20.830Z,7.07
2023-04-17T09:10:52.885Z,7.38
2023-04-17T09:13:25.278Z,6.72
2023-04-17T09:16:15.374Z,6.80
2023-04-17T09:18:46.177Z,6.28
2023-04-17T09:21:14.473Z,6.55
2023-04-17T09:23:56.945Z,6.28
2023-04-17T09:26:24.720Z,5.70
2023-04-17T09:29:13.651Z,5.93
2023-04-17T09:31:42.556Z,4.97
2023-04-17T09:34:13.359Z,6.00
2023-04-17T09:36:44.259Z,6.03
2023-04-17T09:41:47.295Z,5.68
2023-04-17T09:44:25.789Z,5.68
2023-04-17T09:46:53.695Z,5.28
2023-04-17T09:49:40.466Z,4.90
2023-04-17T09:52:07.178Z,4.95
2023-04-17T09:54:37.884Z,5.18
2023-04-17T09:57:08.566Z,5.53
2023-04-17T09:59:44.975Z,5.35
2023-04-17T10:02:17.751Z,5.32
2023-04-17T10:04:48.216Z,5.32
2023-04-17T10:07:16.293Z,6.22
2023-04-17T10:09:47.133Z,5.05
2023-04-17T10:12:15.644Z,4.90
2023-04-17T10:14:46.689Z,5.50
2023-04-17T10:17:37.132Z,4.70
2023-04-17T10:20:19.830Z,4.82
2023-04-17T10:22:57.463Z,5.05
2023-04-17T10:25:26.216Z,4.60
2023-04-17T10:28:05.715Z,5.03
2023-04-17T10:30:54.818Z,4.57
2023-04-17T10:33:24.780Z,4.47
2023-04-17T10:35:52.385Z,4.53
2023-04-17T10:38:37.797Z,4.55
2023-04-17T10:41:09.067Z,5.10
2023-04-17T10:43:40.792Z,4.70
2023-04-17T10:46:14.452Z,5.35
2023-04-17T10:48:53.064Z,5.00
2023-04-17T10:51:29.321Z,5.05
2023-04-17T10:54:00.696Z,4.38
2023-04-17T10:56:41.174Z,4.97
2023-04-17T10:59:13.127Z,4.07
2023-04-17T11:01:50.595Z,2.95
2023-04-17T11:04:21.412Z,1.88
2023-04-17T11:06:48.662Z,1.63
2023-04-17T11:09:16.156Z,1.52
2023-04-17T11:11:44.959Z,2.10
2023-04-17T11:14:15.118Z,2.08
2023-04-17T11:16:43.276Z,1.80
2023-04-17T11:19:11.794Z,2.25
2023-04-17T11:21:47.416Z,2.00
2023-04-17T11:24:32.491Z,1.75
2023-04-17T11:27:02.796Z,2.00
2023-04-17T11:29:30.110Z,1.85
2023-04-17T11:31:57.425Z,2.33
2023-04-17T11:34:25.937Z,2.60
2023-04-17T11:37:00.717Z,2.08
2023-04-17T11:39:34.527Z,2.40
2023-04-17T11:42:05.057Z,3.05
2023-04-17T11:44:31.738Z,2.63
2023-04-17T11:47:00.569Z,3.55
2023-04-17T11:49:31.855Z,3.47
2023-04-17T11:52:02.435Z,4.45
2023-04-17T11:54:41.111Z,3.40
2023-04-17T11:57:14.577Z,3.55
2023-04-17T11:59:42.777Z,3.42
2023-04-17T12:02:10.043Z,3.42
2023-04-17T12:04:40.866Z,3.55
2023-04-17T12:07:08.949Z,3.83
2023-04-17T12:09:36.473Z,3.20
2023-04-17T12:12:07.985Z,2.75
2023-04-17T12:14:36.982Z,2.50
2023-04-17T12:17:03.666Z,2.70
2023-04-17T12:19:33.729Z,2.70
2023-04-17T12:22:00.768Z,2.80
2023-04-17T12:24:27.502Z,2.60
2023-04-17T12:26:54.481Z,2.67
2023-04-17T12:29:32.742Z,3.03
2023-04-17T12:32:10.783Z,3.50
2023-04-17T12:34:37.666Z,4.18
2023-04-17T12:37:06.484Z,3.75
2023-04-17T12:39:33.325Z,4.05
2023-04-17T12:41:59.917Z,4.35
2023-04-17T12:44:26.623Z,4.40
2023-04-17T12:46:55.206Z,4.35
2023-04-17T12:49:23.663Z,4.60
2023-04-17T12:51:51.224Z,3.88
2023-04-17T12:54:18.047Z,3.53
2023-04-17T12:56:44.776Z,3.42
2023-04-17T12:59:11.653Z,3.58
2023-04-17T13:01:39.923Z,3.55
2023-04-17T13:06:58.151Z,2.97
2023-04-17T13:09:26.506Z,3.70
2023-04-17T13:11:54.262Z,3.50
2023-04-17T13:14:21.312Z,3.20
2023-04-17T13:16:51.975Z,3.50
2023-04-17T13:19:20.655Z,2.75
2023-04-17T13:21:47.888Z,3.08
2023-04-17T13:24:14.789Z,3.70
2023-04-17T13:26:44.463Z,3.55
2023-04-17T13:29:11.506Z,3.58
2023-04-17T13:31:38.351Z,3.92
2023-04-17T13:34:04.992Z,3.20
2023-04-17T13:36:33.390Z,3.70
2023-04-17T13:39:00.057Z,3.33
2023-04-17T13:41:26.771Z,4.18
2023-04-17T13:43:55.174Z,4.30
2023-04-17T13:46:22.772Z,4.15
2023-04-17T13:48:49.454Z,4.75
2023-04-17T13:51:16.132Z,5.28
2023-04-17T13:53:42.770Z,4.40
2023-04-17T13:56:09.620Z,4.05
2023-04-17T13:58:38.186Z,4.95
2023-04-17T14:01:04.833Z,5.18
2023-04-17T14:03:31.554Z,5.13
2023-04-17T14:06:01.002Z,5.00
2023-04-17T14:08:27.645Z,4.43
2023-04-17T14:10:56.225Z,3.83
2023-04-17T14:13:22.943Z,5.30
2023-04-17T14:15:52.397Z,5.05
2023-04-17T14:18:19.542Z,4.75
2023-04-17T14:20:46.445Z,5.55
2023-04-17T14:23:13.200Z,6.10
2023-04-17T14:25:39.883Z,6.75
2023-04-17T14:28:06.576Z,7.05
2023-04-17T14:30:41.956Z,7.07
2023-04-17T14:33:10.347Z,6.45
2023-04-17T14:35:37.029Z,7.38
2023-04-17T14:38:06.607Z,7.40
2023-04-17T14:40:33.683Z,5.55
2023-04-17T14:43:02.077Z,5.60
2023-04-17T14:45:31.063Z,5.32
2023-04-17T14:47:58.182Z,5.72
2023-04-17T14:50:24.909Z,5.13
2023-04-17T14:52:52.177Z,5.10
2023-04-17T14:55:21.148Z,4.53
2023-04-17T14:57:47.872Z,4.10
2023-04-17T15:00:17.244Z,4.72
2023-04-17T15:02:44.140Z,4.28
2023-04-17T15:05:10.863Z,4.68
2023-04-17T15:07:37.569Z,4.95
2023-04-17T15:10:04.535Z,4.18
2023-04-17T15:12:31.263Z,4.25
2023-04-17T15:14:57.942Z,3.60
2023-04-17T15:17:24.630Z,4.10
2023-04-17T15:19:51.329Z,4.32
2023-04-17T15:22:19.831Z,3.70
2023-04-17T15:24:46.563Z,3.28
2023-04-17T15:27:15.283Z,3.65
2023-04-17T15:29:41.956Z,3.13
2023-04-17T15:32:08.735Z,3.55
2023-04-17T15:34:35.579Z,3.25
2023-04-17T15:37:02.261Z,3.53
2023-04-17T15:39:28.929Z,2.85
2023-04-17T15:41:57.132Z,3.28
2023-04-17T15:44:23.829Z,2.58
2023-04-17T15:46:50.747Z,2.72
2023-04-17T15:49:17.446Z,3.13
2023-04-17T15:51:44.103Z,2.63
2023-04-17T15:54:12.308Z,3.00
2023-04-17T15:56:39.631Z,2.47
2023-04-17T15:59:06.494Z,2.80
2023-04-17T16:01:33.149Z,2.25
2023-04-17T16:04:02.791Z,2.65
2023-04-17T16:06:29.626Z,2.97
2023-04-17T16:08:56.312Z,2.95
2023-04-17T16:11:24.119Z,2.90
2023-04-17T16:13:50.761Z,2.85
2023-04-17T16:16:17.487Z,2.42
2023-04-17T16:18:47.077Z,3.13
2023-04-17T16:21:14.434Z,2.80
2023-04-17T16:23:43.003Z,2.17
2023-04-17T16:26:10.463Z,2.35
2023-04-17T16:28:37.144Z,2.63
2023-04-17T16:31:03.863Z,2.00
2023-04-17T16:33:30.614Z,2.58
2023-04-17T16:35:57.422Z,3.25
2023-04-17T16:38:24.151Z,2.30
2023-04-17T16:40:53.427Z,2.45
2023-04-17T16:43:20.226Z,2.47
2023-04-17T16:45:49.701Z,2.35
2023-04-17T16:48:16.709Z,2.78
2023-04-17T16:50:45.447Z,3.28
2023-04-17T16:53:13.296Z,2.65
2023-04-17T16:55:40.092Z,2.90
2023-04-17T16:58:06.898Z,3.25
2023-04-17T17:00:33.603Z,3.53
2023-04-17T17:03:02.354Z,3.03
2023-04-17T17:05:29.305Z,3.33
2023-04-17T17:07:55.926Z,3.50
2023-04-17T17:10:28.521Z,3.85
2023-04-17T17:12:55.247Z,3.28
2023-04-17T17:15:22.038Z,3.00
2023-04-17T17:17:48.707Z,3.00
2023-04-17T17:20:15.412Z,3.28
2023-04-17T17:22:42.069Z,2.92
2023-04-17T17:25:11.162Z,3.05
2023-04-17T17:27:37.821Z,3.45
2023-04-17T17:30:05.251Z,3.70
2023-04-17T17:32:31.943Z,2.97
2023-04-17T17:35:00.466Z,3.17
2023-04-17T17:37:27.631Z,2.95
2023-04-17T17:39:54.397Z,3.50
2023-04-17T17:42:21.070Z,4.65
2023-04-17T17:44:47.779Z,3.45
2023-04-17T17:47:14.429Z,2.90
2023-04-17T17:49:41.107Z,3.67
2023-04-17T17:52:07.758Z,3.78
2023-04-17T17:54:37.892Z,4.30
2023-04-17T17:57:05.722Z,3.45
2023-04-17T17:59:32.690Z,4.07
2023-04-17T18:02:01.504Z,4.68
2023-04-17T18:04:31.041Z,4.15
2023-04-17T18:06:57.766Z,4.18
2023-04-17T18:09:24.439Z,3.92
2023-04-17T18:11:51.184Z,3.72
2023-04-17T18:14:21.037Z,3.97
2023-04-17T18:16:48.472Z,3.50
2023-04-17T18:19:15.458Z,3.67
2023-04-17T18:21:42.284Z,4.35
2023-04-17T18:24:12.005Z,4.50
2023-04-17T18:26:38.827Z,3.40
2023-04-17T18:29:05.955Z,3.33
2023-04-17T18:31:32.957Z,3.53
2023-04-17T18:34:02.420Z,3.17
2023-04-17T18:36:29.757Z,3.50
2023-04-17T18:38:56.464Z,3.60
2023-04-17T18:41:25.451Z,3.45
2023-04-17T18:43:52.087Z,3.47
2023-04-17T18:46:18.786Z,3.47
2023-04-17T18:48:45.473Z,4.57
2023-04-17T18:51:14.403Z,4.32
2023-04-17T18:53:43.196Z,3.50
2023-04-17T18:56:12.532Z,3.78
2023-04-17T18:58:40.354Z,3.20
2023-04-17T19:01:09.264Z,2.72
2023-04-17T19:03:36.892Z,3.47
2023-04-17T19:06:03.698Z,2.88
2023-04-17T19:08:30.485Z,3.35
2023-04-17T19:10:57.230Z,2.67
2023-04-17T19:13:24.340Z,2.63
2023-04-17T19:15:51.120Z,2.97
2023-04-17T19:18:17.826Z,3.10
2023-04-17T19:20:44.626Z,2.60
2023-04-17T19:23:11.515Z,2.67
2023-04-17T19:25:43.781Z,3.25
2023-04-17T19:28:10.958Z,3.83
2023-04-17T19:30:38.251Z,3.42
2023-04-17T19:33:05.049Z,3.65
2023-04-17T19:35:32.632Z,3.85
2023-04-17T19:38:02.272Z,3.65
2023-04-17T19:40:29.134Z,2.85
2023-04-17T19:43:01.041Z,3.42
2023-04-17T19:45:28.335Z,3.20
2023-04-17T19:47:57.125Z,3.75
2023-04-17T19:50:27.003Z,3.17
2023-04-17T19:52:57.888Z,3.95
2023-04-17T19:57:52.186Z,2.67
2023-04-17T20:00:19.023Z,3.38
2023-04-17T20:02:46.215Z,3.25
2023-04-17T20:05:12.993Z,4.20
2023-04-17T20:07:40.816Z,3.28
2023-04-17T20:10:07.890Z,3.40
2023-04-17T20:12:36.712Z,3.15
2023-04-17T20:15:03.780Z,2.42
2023-04-17T20:17:30.496Z,2.55
2023-04-17T20:19:57.130Z,2.53
2023-04-17T20:22:23.826Z,2.92
2023-04-17T20:24:51.642Z,2.50
2023-04-17T20:27:18.378Z,2.45
2023-04-17T20:29:45.244Z,2.63
2023-04-17T20:32:11.974Z,2.58
2023-04-17T20:34:39.397Z,3.00
2023-04-17T20:37:06.104Z,2.22
2023-04-17T20:39:34.802Z,2.78
2023-04-17T20:42:01.990Z,2.75
2023-04-17T20:44:28.617Z,2.45
2023-04-17T20:46:55.261Z,3.53
2023-04-17T20:49:22.175Z,3.20
2023-04-17T20:51:49.125Z,3.63
2023-04-17T20:54:15.943Z,3.05
2023-04-17T20:56:43.557Z,3.28
2023-04-17T20:59:10.747Z,3.03
2023-04-17T21:01:37.443Z,3.20
2023-04-17T21:04:04.191Z,3.30
2023-04-17T21:06:30.848Z,3.08
2023-04-17T21:08:57.795Z,3.53
2023-04-17T21:11:24.433Z,3.65
2023-04-17T21:13:51.172Z,3.20
2023-04-17T21:16:17.825Z,2.85
2023-04-17T21:18:45.580Z,3.33
2023-04-17T21:21:12.275Z,3.95
2023-04-17T21:23:38.956Z,3.05
2023-04-17T21:26:05.959Z,2.65
2023-04-17T21:28:32.662Z,3.20
2023-04-17T21:30:59.397Z,3.28
2023-04-17T21:33:26.058Z,3.22
2023-04-17T21:35:52.703Z,3.38
2023-04-17T21:38:19.351Z,3.20
2023-04-17T21:43:15.547Z,3.88
2023-04-17T21:45:42.228Z,3.90
2023-04-17T21:48:08.906Z,3.33
2023-04-17T21:50:36.268Z,3.55
2023-04-17T21:53:03.130Z,4.05
2023-04-17T21:55:29.758Z,4.15
2023-04-17T21:57:56.452Z,4.88
2023-04-17T22:00:23.949Z,4.15
2023-04-17T22:02:50.808Z,4.60
2023-04-17T22:05:17.707Z,4.95
2023-04-17T22:07:54.542Z,4.40
2023-04-17T22:10:22.918Z,4.40
2023-04-17T22:12:50.909Z,5.43
2023-04-17T22:15:17.903Z,5.15
2023-04-17T22:17:44.649Z,4.80
2023-04-17T22:20:11.882Z,4.63
2023-04-17T22:22:38.546Z,4.93
2023-04-17T22:25:05.784Z,4.82
2023-04-17T22:27:32.543Z,5.03
2023-04-17T22:29:59.179Z,5.95
2023-04-17T22:32:25.933Z,5.40
2023-04-17T22:34:52.568Z,6.20
2023-04-17T22:37:19.273Z,6.65
2023-04-17T22:39:46.295Z,5.47
2023-04-17T22:42:12.913Z,5.30
2023-04-17T22:44:39.547Z,5.90
2023-04-17T22:47:06.179Z,5.97
2023-04-17T22:49:37.902Z,5.10
2023-04-17T22:52:07.880Z,5.90
2023-04-17T22:54:34.562Z,6.28
2023-04-17T22:57:02.734Z,5.97
2023-04-17T22:59:29.949Z,5.80
2023-04-17T23:01:56.780Z,5.22
2023-04-17T23:04:24.052Z,6.00
2023-04-17T23:06:50.680Z,5.82
2023-04-17T23:09:17.379Z,6.10
2023-04-17T23:11:43.982Z,5.90
2023-04-17T23:14:11.315Z,6.60
2023-04-17T23:16:38.273Z,6.57
2023-04-17T23:19:04.976Z,6.07
2023-04-17T23:21:31.774Z,6.93
2023-04-17T23:23:58.419Z,6.95
2023-04-17T23:26:25.800Z,7.15
2023-04-17T23:28:52.446Z,7.22
2023-04-17T23:31:19.151Z,7.55
2023-04-17T23:33:45.878Z,7.18
2023-04-17T23:36:13.605Z,7.32
2023-04-17T23:38:40.362Z,7.55
2023-04-17T23:41:07.072Z,9.07
2023-04-17T23:43:33.738Z,8.48
2023-04-17T23:46:00.827Z,8.38
2023-04-17T23:48:28.120Z,8.95
2023-04-17T23:50:54.953Z,9.07
2023-04-17T23:53:21.631Z,9.35
2023-04-17T23:55:48.255Z,8.98
2023-04-17T23:58:14.968Z,8.68
